sensor_id;sensor_type;location;lat;lon;timestamp;P1;durP1;ratioP1;P2;durP2;ratioP2
7965;SDS011;4028;43.272;26.932;2023-06-19T00:02:00;4.85;;;4.45;;
7965;SDS011;4028;43.272;26.932;2023-06-19T00:04:26;6.05;;;4.13;;
7965;SDS011;4028;43.272;26.932;2023-06-19T00:06:52;5.82;;;4.82;;
7965;SDS011;4028;43.272;26.932;2023-06-19T00:09:18;5.28;;;4.55;;
7965;SDS011;4028;43.272;26.932;2023-06-19T00:11:44;4.32;;;4.03;;
7965;SDS011;4028;43.272;26.932;2023-06-19T00:14:10;8.35;;;5.00;;
7965;SDS011;4028;43.272;26.932;2023-06-19T00:16:35;4.95;;;4.50;;
7965;SDS011;4028;43.272;26.932;2023-06-19T00:19:01;5.20;;;4.70;;
7965;SDS011;4028;43.272;26.932;2023-06-19T00:21:28;5.47;;;4.30;;
7965;SDS011;4028;43.272;26.932;2023-06-19T00:23:55;4.65;;;4.25;;
7965;SDS011;4028;43.272;26.932;2023-06-19T00:26:21;6.53;;;4.70;;
7965;SDS011;4028;43.272;26.932;2023-06-19T00:28:48;4.90;;;4.40;;
7965;SDS011;4028;43.272;26.932;2023-06-19T00:31:14;5.38;;;4.55;;
7965;SDS011;4028;43.272;26.932;2023-06-19T00:33:40;6.13;;;4.32;;
7965;SDS011;4028;43.272;26.932;2023-06-19T00:36:12;5.00;;;4.50;;
7965;SDS011;4028;43.272;26.932;2023-06-19T00:38:38;5.13;;;4.18;;
7965;SDS011;4028;43.272;26.932;2023-06-19T00:41:04;5.85;;;4.28;;
7965;SDS011;4028;43.272;26.932;2023-06-19T00:43:30;5.15;;;4.10;;
7965;SDS011;4028;43.272;26.932;2023-06-19T00:45:57;6.45;;;4.22;;
7965;SDS011;4028;43.272;26.932;2023-06-19T00:48:23;4.80;;;4.20;;
7965;SDS011;4028;43.272;26.932;2023-06-19T00:50:49;3.88;;;3.42;;
7965;SDS011;4028;43.272;26.932;2023-06-19T00:53:15;4.57;;;3.75;;
7965;SDS011;4028;43.272;26.932;2023-06-19T00:55:42;5.00;;;3.78;;
7965;SDS011;4028;43.272;26.932;2023-06-19T00:58:09;5.10;;;3.95;;
7965;SDS011;4028;43.272;26.932;2023-06-19T01:00:35;5.10;;;4.03;;
7965;SDS011;4028;43.272;26.932;2023-06-19T01:03:00;4.90;;;4.32;;
7965;SDS011;4028;43.272;26.932;2023-06-19T01:05:26;4.00;;;3.60;;
7965;SDS011;4028;43.272;26.932;2023-06-19T01:07:54;5.47;;;4.20;;
7965;SDS011;4028;43.272;26.932;2023-06-19T01:10:43;3.88;;;3.58;;
7965;SDS011;4028;43.272;26.932;2023-06-19T01:13:17;6.55;;;4.10;;
7965;SDS011;4028;43.272;26.932;2023-06-19T01:15:48;6.30;;;3.80;;
7965;SDS011;4028;43.272;26.932;2023-06-19T01:18:14;6.60;;;4.10;;
7965;SDS011;4028;43.272;26.932;2023-06-19T01:20:40;4.45;;;3.80;;
7965;SDS011;4028;43.272;26.932;2023-06-19T01:23:07;8.23;;;4.28;;
7965;SDS011;4028;43.272;26.932;2023-06-19T01:25:33;4.35;;;3.88;;
7965;SDS011;4028;43.272;26.932;2023-06-19T01:28:00;5.00;;;3.75;;
7965;SDS011;4028;43.272;26.932;2023-06-19T01:30:27;4.25;;;3.85;;
7965;SDS011;4028;43.272;26.932;2023-06-19T01:32:54;8.77;;;4.40;;
7965;SDS011;4028;43.272;26.932;2023-06-19T01:35:26;6.97;;;4.57;;
7965;SDS011;4028;43.272;26.932;2023-06-19T01:37:54;9.88;;;4.75;;
7965;SDS011;4028;43.272;26.932;2023-06-19T01:40:21;6.32;;;4.57;;
7965;SDS011;4028;43.272;26.932;2023-06-19T01:42:51;6.30;;;4.28;;
7965;SDS011;4028;43.272;26.932;2023-06-19T01:45:18;5.13;;;4.53;;
7965;SDS011;4028;43.272;26.932;2023-06-19T01:47:44;6.90;;;4.38;;
7965;SDS011;4028;43.272;26.932;2023-06-19T01:50:10;5.35;;;4.35;;
7965;SDS011;4028;43.272;26.932;2023-06-19T01:52:36;7.57;;;4.32;;
7965;SDS011;4028;43.272;26.932;2023-06-19T01:55:02;7.47;;;4.28;;
7965;SDS011;4028;43.272;26.932;2023-06-19T01:57:28;5.95;;;4.72;;
7965;SDS011;4028;43.272;26.932;2023-06-19T01:59:54;5.38;;;4.35;;
7965;SDS011;4028;43.272;26.932;2023-06-19T02:02:19;6.68;;;5.05;;
7965;SDS011;4028;43.272;26.932;2023-06-19T02:04:45;7.43;;;4.63;;
7965;SDS011;4028;43.272;26.932;2023-06-19T02:07:10;6.45;;;4.80;;
7965;SDS011;4028;43.272;26.932;2023-06-19T02:09:37;5.70;;;4.70;;
7965;SDS011;4028;43.272;26.932;2023-06-19T02:12:03;7.35;;;4.50;;
7965;SDS011;4028;43.272;26.932;2023-06-19T02:14:28;8.68;;;5.03;;
7965;SDS011;4028;43.272;26.932;2023-06-19T02:16:54;5.35;;;4.85;;
7965;SDS011;4028;43.272;26.932;2023-06-19T02:19:19;7.68;;;4.50;;
7965;SDS011;4028;43.272;26.932;2023-06-19T02:21:45;6.60;;;4.80;;
7965;SDS011;4028;43.272;26.932;2023-06-19T02:24:10;6.55;;;5.15;;
7965;SDS011;4028;43.272;26.932;2023-06-19T02:26:36;9.98;;;5.40;;
7965;SDS011;4028;43.272;26.932;2023-06-19T02:29:01;6.22;;;5.38;;
7965;SDS011;4028;43.272;26.932;2023-06-19T02:31:27;6.30;;;5.68;;
7965;SDS011;4028;43.272;26.932;2023-06-19T02:33:52;6.93;;;5.32;;
7965;SDS011;4028;43.272;26.932;2023-06-19T02:36:18;6.88;;;5.38;;
7965;SDS011;4028;43.272;26.932;2023-06-19T02:38:46;7.93;;;5.60;;
7965;SDS011;4028;43.272;26.932;2023-06-19T02:41:12;11.20;;;5.90;;
7965;SDS011;4028;43.272;26.932;2023-06-19T02:43:39;6.75;;;5.30;;
7965;SDS011;4028;43.272;26.932;2023-06-19T02:46:06;6.30;;;5.45;;
7965;SDS011;4028;43.272;26.932;2023-06-19T02:48:31;11.40;;;5.80;;
7965;SDS011;4028;43.272;26.932;2023-06-19T02:50:57;8.20;;;5.93;;
7965;SDS011;4028;43.272;26.932;2023-06-19T02:53:22;6.63;;;5.82;;
7965;SDS011;4028;43.272;26.932;2023-06-19T02:55:48;7.20;;;5.63;;
7965;SDS011;4028;43.272;26.932;2023-06-19T02:58:13;7.70;;;5.85;;
7965;SDS011;4028;43.272;26.932;2023-06-19T03:00:39;10.18;;;6.03;;
7965;SDS011;4028;43.272;26.932;2023-06-19T03:03:04;8.90;;;5.30;;
7965;SDS011;4028;43.272;26.932;2023-06-19T03:05:30;8.00;;;5.80;;
7965;SDS011;4028;43.272;26.932;2023-06-19T03:07:56;6.90;;;6.20;;
7965;SDS011;4028;43.272;26.932;2023-06-19T03:10:21;9.23;;;6.35;;
7965;SDS011;4028;43.272;26.932;2023-06-19T03:12:47;12.32;;;6.22;;
7965;SDS011;4028;43.272;26.932;2023-06-19T03:15:13;12.32;;;6.60;;
7965;SDS011;4028;43.272;26.932;2023-06-19T03:17:39;10.23;;;6.32;;
7965;SDS011;4028;43.272;26.932;2023-06-19T03:20:04;7.65;;;6.07;;
7965;SDS011;4028;43.272;26.932;2023-06-19T03:22:31;6.75;;;5.90;;
7965;SDS011;4028;43.272;26.932;2023-06-19T03:24:57;7.90;;;6.00;;
7965;SDS011;4028;43.272;26.932;2023-06-19T03:27:22;6.32;;;5.72;;
7965;SDS011;4028;43.272;26.932;2023-06-19T03:29:51;7.75;;;6.30;;
7965;SDS011;4028;43.272;26.932;2023-06-19T03:32:17;7.15;;;5.80;;
7965;SDS011;4028;43.272;26.932;2023-06-19T03:34:42;8.35;;;6.32;;
7965;SDS011;4028;43.272;26.932;2023-06-19T03:37:08;7.32;;;6.05;;
7965;SDS011;4028;43.272;26.932;2023-06-19T03:39:33;7.45;;;6.70;;
7965;SDS011;4028;43.272;26.932;2023-06-19T03:41:59;12.32;;;6.70;;
7965;SDS011;4028;43.272;26.932;2023-06-19T03:44:24;9.05;;;6.40;;
7965;SDS011;4028;43.272;26.932;2023-06-19T03:46:50;10.60;;;7.00;;
7965;SDS011;4028;43.272;26.932;2023-06-19T03:49:16;8.18;;;5.82;;
7965;SDS011;4028;43.272;26.932;2023-06-19T03:51:42;7.88;;;5.85;;
7965;SDS011;4028;43.272;26.932;2023-06-19T03:54:08;8.93;;;6.10;;
7965;SDS011;4028;43.272;26.932;2023-06-19T03:56:33;9.98;;;6.05;;
7965;SDS011;4028;43.272;26.932;2023-06-19T03:58:59;6.03;;;5.32;;
7965;SDS011;4028;43.272;26.932;2023-06-19T04:01:24;9.73;;;6.50;;
7965;SDS011;4028;43.272;26.932;2023-06-19T04:03:50;6.57;;;5.18;;
7965;SDS011;4028;43.272;26.932;2023-06-19T04:06:15;6.88;;;5.18;;
7965;SDS011;4028;43.272;26.932;2023-06-19T04:08:40;8.25;;;5.95;;
7965;SDS011;4028;43.272;26.932;2023-06-19T04:11:06;7.35;;;5.55;;
7965;SDS011;4028;43.272;26.932;2023-06-19T04:13:31;7.95;;;5.60;;
7965;SDS011;4028;43.272;26.932;2023-06-19T04:15:57;10.02;;;5.22;;
7965;SDS011;4028;43.272;26.932;2023-06-19T04:18:22;5.63;;;4.75;;
7965;SDS011;4028;43.272;26.932;2023-06-19T04:20:48;6.88;;;5.50;;
7965;SDS011;4028;43.272;26.932;2023-06-19T04:23:13;6.85;;;5.03;;
7965;SDS011;4028;43.272;26.932;2023-06-19T04:25:39;7.32;;;5.45;;
7965;SDS011;4028;43.272;26.932;2023-06-19T04:28:04;8.15;;;5.35;;
7965;SDS011;4028;43.272;26.932;2023-06-19T04:30:30;7.78;;;4.97;;
7965;SDS011;4028;43.272;26.932;2023-06-19T04:32:58;7.93;;;5.55;;
7965;SDS011;4028;43.272;26.932;2023-06-19T04:35:24;6.38;;;4.90;;
7965;SDS011;4028;43.272;26.932;2023-06-19T04:37:50;8.93;;;5.20;;
7965;SDS011;4028;43.272;26.932;2023-06-19T04:40:15;8.35;;;4.90;;
7965;SDS011;4028;43.272;26.932;2023-06-19T04:42:41;5.68;;;4.82;;
7965;SDS011;4028;43.272;26.932;2023-06-19T04:45:07;5.35;;;4.82;;
7965;SDS011;4028;43.272;26.932;2023-06-19T04:47:34;7.85;;;4.88;;
7965;SDS011;4028;43.272;26.932;2023-06-19T04:50:00;4.93;;;4.50;;
7965;SDS011;4028;43.272;26.932;2023-06-19T04:52:25;7.78;;;4.70;;
7965;SDS011;4028;43.272;26.932;2023-06-19T04:54:51;6.10;;;4.70;;
7965;SDS011;4028;43.272;26.932;2023-06-19T04:57:16;4.82;;;4.40;;
7965;SDS011;4028;43.272;26.932;2023-06-19T04:59:42;5.18;;;4.40;;
7965;SDS011;4028;43.272;26.932;2023-06-19T05:02:11;7.00;;;4.70;;
7965;SDS011;4028;43.272;26.932;2023-06-19T05:04:37;4.63;;;4.05;;
7965;SDS011;4028;43.272;26.932;2023-06-19T05:07:02;5.10;;;4.20;;
7965;SDS011;4028;43.272;26.932;2023-06-19T05:09:28;7.85;;;4.32;;
7965;SDS011;4028;43.272;26.932;2023-06-19T05:11:53;6.15;;;4.30;;
7965;SDS011;4028;43.272;26.932;2023-06-19T05:14:19;7.40;;;4.15;;
7965;SDS011;4028;43.272;26.932;2023-06-19T05:16:45;4.90;;;4.25;;
7965;SDS011;4028;43.272;26.932;2023-06-19T05:19:10;4.50;;;4.10;;
7965;SDS011;4028;43.272;26.932;2023-06-19T05:21:36;5.07;;;4.32;;
7965;SDS011;4028;43.272;26.932;2023-06-19T05:24:01;6.20;;;4.28;;
7965;SDS011;4028;43.272;26.932;2023-06-19T05:26:27;4.38;;;3.95;;
7965;SDS011;4028;43.272;26.932;2023-06-19T05:28:52;5.30;;;3.70;;
7965;SDS011;4028;43.272;26.932;2023-06-19T05:31:18;7.60;;;4.50;;
7965;SDS011;4028;43.272;26.932;2023-06-19T05:33:44;6.57;;;4.28;;
7965;SDS011;4028;43.272;26.932;2023-06-19T05:36:10;8.57;;;4.93;;
7965;SDS011;4028;43.272;26.932;2023-06-19T05:38:36;4.97;;;4.43;;
7965;SDS011;4028;43.272;26.932;2023-06-19T05:41:01;6.07;;;4.78;;
7965;SDS011;4028;43.272;26.932;2023-06-19T05:43:27;7.47;;;4.85;;
7965;SDS011;4028;43.272;26.932;2023-06-19T05:45:53;36.08;;;9.45;;
7965;SDS011;4028;43.272;26.932;2023-06-19T05:48:21;9.68;;;5.45;;
7965;SDS011;4028;43.272;26.932;2023-06-19T05:50:46;10.32;;;5.32;;
7965;SDS011;4028;43.272;26.932;2023-06-19T05:53:12;5.82;;;5.28;;
7965;SDS011;4028;43.272;26.932;2023-06-19T05:55:38;7.05;;;5.10;;
7965;SDS011;4028;43.272;26.932;2023-06-19T05:58:03;10.77;;;5.40;;
7965;SDS011;4028;43.272;26.932;2023-06-19T06:00:29;10.38;;;5.97;;
7965;SDS011;4028;43.272;26.932;2023-06-19T06:02:58;6.82;;;4.82;;
7965;SDS011;4028;43.272;26.932;2023-06-19T06:05:25;7.03;;;5.18;;
7965;SDS011;4028;43.272;26.932;2023-06-19T06:07:51;8.02;;;5.82;;
7965;SDS011;4028;43.272;26.932;2023-06-19T06:10:18;15.48;;;6.65;;
7965;SDS011;4028;43.272;26.932;2023-06-19T06:12:48;10.35;;;6.35;;
7965;SDS011;4028;43.272;26.932;2023-06-19T06:15:14;17.73;;;6.93;;
7965;SDS011;4028;43.272;26.932;2023-06-19T06:17:40;6.70;;;5.88;;
7965;SDS011;4028;43.272;26.932;2023-06-19T06:20:05;6.72;;;5.93;;
7965;SDS011;4028;43.272;26.932;2023-06-19T06:22:36;9.65;;;5.65;;
7965;SDS011;4028;43.272;26.932;2023-06-19T06:25:02;9.38;;;5.72;;
7965;SDS011;4028;43.272;26.932;2023-06-19T06:27:27;8.05;;;5.68;;
7965;SDS011;4028;43.272;26.932;2023-06-19T06:29:53;6.82;;;5.95;;
7965;SDS011;4028;43.272;26.932;2023-06-19T06:32:18;6.60;;;6.00;;
7965;SDS011;4028;43.272;26.932;2023-06-19T06:34:44;9.95;;;6.40;;
7965;SDS011;4028;43.272;26.932;2023-06-19T06:37:09;6.70;;;6.00;;
7965;SDS011;4028;43.272;26.932;2023-06-19T06:39:35;9.18;;;5.97;;
7965;SDS011;4028;43.272;26.932;2023-06-19T06:42:00;5.97;;;5.40;;
7965;SDS011;4028;43.272;26.932;2023-06-19T06:44:26;6.15;;;5.55;;
7965;SDS011;4028;43.272;26.932;2023-06-19T06:46:51;7.05;;;5.70;;
7965;SDS011;4028;43.272;26.932;2023-06-19T06:49:17;8.82;;;6.18;;
7965;SDS011;4028;43.272;26.932;2023-06-19T06:51:42;7.43;;;5.55;;
7965;SDS011;4028;43.272;26.932;2023-06-19T06:54:08;19.33;;;6.68;;
7965;SDS011;4028;43.272;26.932;2023-06-19T06:56:34;14.85;;;6.93;;
7965;SDS011;4028;43.272;26.932;2023-06-19T06:59:00;8.23;;;6.00;;
7965;SDS011;4028;43.272;26.932;2023-06-19T07:01:25;6.60;;;5.55;;
7965;SDS011;4028;43.272;26.932;2023-06-19T07:03:54;8.45;;;6.07;;
7965;SDS011;4028;43.272;26.932;2023-06-19T07:06:19;8.30;;;6.30;;
7965;SDS011;4028;43.272;26.932;2023-06-19T07:08:45;7.20;;;6.32;;
7965;SDS011;4028;43.272;26.932;2023-06-19T07:11:12;7.40;;;5.88;;
7965;SDS011;4028;43.272;26.932;2023-06-19T07:13:38;8.13;;;6.28;;
7965;SDS011;4028;43.272;26.932;2023-06-19T07:16:04;7.68;;;5.85;;
7965;SDS011;4028;43.272;26.932;2023-06-19T07:18:30;6.10;;;5.47;;
7965;SDS011;4028;43.272;26.932;2023-06-19T07:20:55;8.30;;;5.80;;
7965;SDS011;4028;43.272;26.932;2023-06-19T07:23:21;9.43;;;6.72;;
7965;SDS011;4028;43.272;26.932;2023-06-19T07:25:47;8.65;;;5.90;;
7965;SDS011;4028;43.272;26.932;2023-06-19T07:28:12;6.75;;;5.53;;
7965;SDS011;4028;43.272;26.932;2023-06-19T07:30:39;8.40;;;5.78;;
7965;SDS011;4028;43.272;26.932;2023-06-19T07:33:04;8.15;;;5.55;;
7965;SDS011;4028;43.272;26.932;2023-06-19T07:35:30;6.45;;;5.55;;
7965;SDS011;4028;43.272;26.932;2023-06-19T07:37:55;6.53;;;5.22;;
7965;SDS011;4028;43.272;26.932;2023-06-19T07:40:21;6.70;;;5.25;;
7965;SDS011;4028;43.272;26.932;2023-06-19T07:42:46;6.00;;;5.40;;
7965;SDS011;4028;43.272;26.932;2023-06-19T07:45:12;7.45;;;5.47;;
7965;SDS011;4028;43.272;26.932;2023-06-19T07:47:38;5.63;;;5.10;;
7965;SDS011;4028;43.272;26.932;2023-06-19T07:50:03;6.22;;;5.60;;
7965;SDS011;4028;43.272;26.932;2023-06-19T07:52:29;7.25;;;6.00;;
7965;SDS011;4028;43.272;26.932;2023-06-19T07:54:55;7.22;;;6.43;;
7965;SDS011;4028;43.272;26.932;2023-06-19T07:57:23;7.65;;;5.78;;
7965;SDS011;4028;43.272;26.932;2023-06-19T07:59:50;6.53;;;5.80;;
7965;SDS011;4028;43.272;26.932;2023-06-19T08:02:17;8.27;;;6.50;;
7965;SDS011;4028;43.272;26.932;2023-06-19T08:04:42;13.98;;;7.10;;
7965;SDS011;4028;43.272;26.932;2023-06-19T08:07:08;6.53;;;5.93;;
7965;SDS011;4028;43.272;26.932;2023-06-19T08:09:34;6.82;;;6.13;;
7965;SDS011;4028;43.272;26.932;2023-06-19T08:12:00;6.85;;;6.18;;
7965;SDS011;4028;43.272;26.932;2023-06-19T08:14:27;8.38;;;6.95;;
7965;SDS011;4028;43.272;26.932;2023-06-19T08:16:52;6.40;;;5.80;;
7965;SDS011;4028;43.272;26.932;2023-06-19T08:19:18;6.45;;;5.85;;
7965;SDS011;4028;43.272;26.932;2023-06-19T08:21:43;14.48;;;7.38;;
7965;SDS011;4028;43.272;26.932;2023-06-19T08:24:09;9.05;;;6.72;;
7965;SDS011;4028;43.272;26.932;2023-06-19T08:26:34;10.88;;;6.60;;
7965;SDS011;4028;43.272;26.932;2023-06-19T08:28:59;8.90;;;6.40;;
7965;SDS011;4028;43.272;26.932;2023-06-19T08:31:25;8.68;;;6.63;;
7965;SDS011;4028;43.272;26.932;2023-06-19T08:33:53;8.93;;;7.30;;
7965;SDS011;4028;43.272;26.932;2023-06-19T08:36:19;10.00;;;7.10;;
7965;SDS011;4028;43.272;26.932;2023-06-19T08:38:45;11.40;;;7.13;;
7965;SDS011;4028;43.272;26.932;2023-06-19T08:41:14;8.38;;;7.38;;
7965;SDS011;4028;43.272;26.932;2023-06-19T08:43:40;10.63;;;6.97;;
7965;SDS011;4028;43.272;26.932;2023-06-19T08:48:35;8.07;;;6.78;;
7965;SDS011;4028;43.272;26.932;2023-06-19T08:51:01;7.32;;;6.18;;
7965;SDS011;4028;43.272;26.932;2023-06-19T08:53:29;7.88;;;6.82;;
7965;SDS011;4028;43.272;26.932;2023-06-19T08:56:00;7.18;;;6.50;;
7965;SDS011;4028;43.272;26.932;2023-06-19T08:58:26;7.70;;;6.28;;
7965;SDS011;4028;43.272;26.932;2023-06-19T09:00:52;10.25;;;6.32;;
7965;SDS011;4028;43.272;26.932;2023-06-19T09:03:21;6.85;;;6.20;;
7965;SDS011;4028;43.272;26.932;2023-06-19T09:05:47;8.23;;;6.63;;
7965;SDS011;4028;43.272;26.932;2023-06-19T09:08:19;7.53;;;6.60;;
7965;SDS011;4028;43.272;26.932;2023-06-19T09:10:59;9.55;;;6.60;;
7965;SDS011;4028;43.272;26.932;2023-06-19T09:13:24;7.82;;;6.78;;
7965;SDS011;4028;43.272;26.932;2023-06-19T09:15:59;8.25;;;6.63;;
7965;SDS011;4028;43.272;26.932;2023-06-19T09:18:45;7.72;;;6.82;;
7965;SDS011;4028;43.272;26.932;2023-06-19T09:21:18;7.95;;;6.30;;
7965;SDS011;4028;43.272;26.932;2023-06-19T09:23:47;6.60;;;6.10;;
7965;SDS011;4028;43.272;26.932;2023-06-19T09:26:16;7.40;;;6.72;;
7965;SDS011;4028;43.272;26.932;2023-06-19T09:28:43;6.50;;;5.90;;
7965;SDS011;4028;43.272;26.932;2023-06-19T09:31:09;6.70;;;6.10;;
7965;SDS011;4028;43.272;26.932;2023-06-19T09:33:35;6.78;;;6.28;;
7965;SDS011;4028;43.272;26.932;2023-06-19T09:36:02;8.70;;;6.70;;
7965;SDS011;4028;43.272;26.932;2023-06-19T09:38:30;7.40;;;6.70;;
7965;SDS011;4028;43.272;26.932;2023-06-19T09:41:04;8.50;;;6.32;;
7965;SDS011;4028;43.272;26.932;2023-06-19T09:46:12;7.78;;;7.03;;
7965;SDS011;4028;43.272;26.932;2023-06-19T09:48:41;7.28;;;6.57;;
7965;SDS011;4028;43.272;26.932;2023-06-19T09:53:48;15.10;;;8.35;;
7965;SDS011;4028;43.272;26.932;2023-06-19T09:56:16;13.85;;;8.20;;
7965;SDS011;4028;43.272;26.932;2023-06-19T09:58:46;12.50;;;8.05;;
7965;SDS011;4028;43.272;26.932;2023-06-19T10:01:14;11.25;;;6.47;;
7965;SDS011;4028;43.272;26.932;2023-06-19T10:03:43;10.88;;;7.07;;
7965;SDS011;4028;43.272;26.932;2023-06-19T10:06:12;10.63;;;6.40;;
7965;SDS011;4028;43.272;26.932;2023-06-19T10:08:40;8.07;;;6.75;;
7965;SDS011;4028;43.272;26.932;2023-06-19T10:11:08;7.53;;;6.82;;
7965;SDS011;4028;43.272;26.932;2023-06-19T10:13:37;7.90;;;7.13;;
7965;SDS011;4028;43.272;26.932;2023-06-19T10:16:04;8.25;;;7.25;;
7965;SDS011;4028;43.272;26.932;2023-06-19T10:18:44;7.90;;;6.63;;
7965;SDS011;4028;43.272;26.932;2023-06-19T10:21:17;9.52;;;6.32;;
7965;SDS011;4028;43.272;26.932;2023-06-19T10:23:51;9.90;;;7.30;;
7965;SDS011;4028;43.272;26.932;2023-06-19T10:26:29;9.40;;;6.82;;
7965;SDS011;4028;43.272;26.932;2023-06-19T10:28:58;7.05;;;6.38;;
7965;SDS011;4028;43.272;26.932;2023-06-19T10:31:23;8.25;;;6.78;;
7965;SDS011;4028;43.272;26.932;2023-06-19T10:33:49;8.32;;;7.55;;
7965;SDS011;4028;43.272;26.932;2023-06-19T10:36:17;8.02;;;6.85;;
7965;SDS011;4028;43.272;26.932;2023-06-19T10:38:44;9.30;;;7.03;;
7965;SDS011;4028;43.272;26.932;2023-06-19T10:41:21;6.70;;;6.00;;
7965;SDS011;4028;43.272;26.932;2023-06-19T10:44:01;8.00;;;5.70;;
7965;SDS011;4028;43.272;26.932;2023-06-19T10:46:37;6.97;;;6.32;;
7965;SDS011;4028;43.272;26.932;2023-06-19T10:49:04;7.20;;;6.50;;
7965;SDS011;4028;43.272;26.932;2023-06-19T10:51:31;7.60;;;6.80;;
7965;SDS011;4028;43.272;26.932;2023-06-19T10:53:59;7.18;;;6.28;;
7965;SDS011;4028;43.272;26.932;2023-06-19T10:56:25;7.03;;;6.45;;
7965;SDS011;4028;43.272;26.932;2023-06-19T10:59:00;7.63;;;6.93;;
7965;SDS011;4028;43.272;26.932;2023-06-19T11:01:34;7.30;;;6.55;;
7965;SDS011;4028;43.272;26.932;2023-06-19T11:04:07;7.05;;;6.40;;
7965;SDS011;4028;43.272;26.932;2023-06-19T11:06:34;8.30;;;7.50;;
7965;SDS011;4028;43.272;26.932;2023-06-19T11:09:00;8.77;;;6.90;;
7965;SDS011;4028;43.272;26.932;2023-06-19T11:11:36;6.90;;;6.30;;
7965;SDS011;4028;43.272;26.932;2023-06-19T11:14:02;7.10;;;6.50;;
7965;SDS011;4028;43.272;26.932;2023-06-19T11:16:28;7.20;;;6.60;;
7965;SDS011;4028;43.272;26.932;2023-06-19T11:18:57;7.55;;;6.95;;
7965;SDS011;4028;43.272;26.932;2023-06-19T11:21:32;8.60;;;6.22;;
7965;SDS011;4028;43.272;26.932;2023-06-19T11:24:02;6.63;;;6.10;;
7965;SDS011;4028;43.272;26.932;2023-06-19T11:26:28;8.00;;;6.00;;
7965;SDS011;4028;43.272;26.932;2023-06-19T11:28:53;6.57;;;5.88;;
7965;SDS011;4028;43.272;26.932;2023-06-19T11:31:26;7.53;;;6.72;;
7965;SDS011;4028;43.272;26.932;2023-06-19T11:33:59;7.32;;;6.63;;
7965;SDS011;4028;43.272;26.932;2023-06-19T11:36:26;8.32;;;5.80;;
7965;SDS011;4028;43.272;26.932;2023-06-19T11:38:52;6.50;;;5.82;;
7965;SDS011;4028;43.272;26.932;2023-06-19T11:41:25;8.75;;;5.57;;
7965;SDS011;4028;43.272;26.932;2023-06-19T11:44:03;5.97;;;5.45;;
7965;SDS011;4028;43.272;26.932;2023-06-19T11:46:30;6.30;;;5.55;;
7965;SDS011;4028;43.272;26.932;2023-06-19T11:51:38;6.28;;;5.78;;
7965;SDS011;4028;43.272;26.932;2023-06-19T11:54:08;6.43;;;5.40;;
7965;SDS011;4028;43.272;26.932;2023-06-19T11:56:35;6.03;;;5.53;;
7965;SDS011;4028;43.272;26.932;2023-06-19T11:59:01;7.00;;;5.63;;
7965;SDS011;4028;43.272;26.932;2023-06-19T12:01:29;6.30;;;5.60;;
7965;SDS011;4028;43.272;26.932;2023-06-19T12:03:55;10.65;;;5.35;;
7965;SDS011;4028;43.272;26.932;2023-06-19T12:06:21;5.35;;;4.85;;
7965;SDS011;4028;43.272;26.932;2023-06-19T12:08:46;6.03;;;5.53;;
7965;SDS011;4028;43.272;26.932;2023-06-19T12:11:12;6.57;;;5.00;;
7965;SDS011;4028;43.272;26.932;2023-06-19T12:13:39;8.57;;;5.70;;
7965;SDS011;4028;43.272;26.932;2023-06-19T12:16:06;7.65;;;6.20;;
7965;SDS011;4028;43.272;26.932;2023-06-19T12:18:32;5.85;;;5.05;;
7965;SDS011;4028;43.272;26.932;2023-06-19T12:20:58;7.07;;;4.95;;
7965;SDS011;4028;43.272;26.932;2023-06-19T12:23:23;7.13;;;5.13;;
7965;SDS011;4028;43.272;26.932;2023-06-19T12:25:49;5.47;;;5.07;;
7965;SDS011;4028;43.272;26.932;2023-06-19T12:28:14;5.60;;;4.50;;
7965;SDS011;4028;43.272;26.932;2023-06-19T12:30:43;6.35;;;4.45;;
7965;SDS011;4028;43.272;26.932;2023-06-19T12:33:14;5.18;;;4.65;;
7965;SDS011;4028;43.272;26.932;2023-06-19T12:35:40;5.53;;;5.03;;
7965;SDS011;4028;43.272;26.932;2023-06-19T12:38:08;5.13;;;4.35;;
7965;SDS011;4028;43.272;26.932;2023-06-19T12:40:34;5.13;;;4.65;;
7965;SDS011;4028;43.272;26.932;2023-06-19T12:43:01;10.90;;;4.78;;
7965;SDS011;4028;43.272;26.932;2023-06-19T12:45:26;5.13;;;4.05;;
7965;SDS011;4028;43.272;26.932;2023-06-19T12:47:52;19.83;;;5.95;;
7965;SDS011;4028;43.272;26.932;2023-06-19T12:50:17;10.60;;;5.85;;
7965;SDS011;4028;43.272;26.932;2023-06-19T12:52:43;9.85;;;4.35;;
7965;SDS011;4028;43.272;26.932;2023-06-19T12:55:08;4.30;;;3.72;;
7965;SDS011;4028;43.272;26.932;2023-06-19T12:57:34;4.50;;;4.10;;
7965;SDS011;4028;43.272;26.932;2023-06-19T12:59:59;5.88;;;4.05;;
7965;SDS011;4028;43.272;26.932;2023-06-19T13:02:25;26.90;;;6.85;;
7965;SDS011;4028;43.272;26.932;2023-06-19T13:04:51;11.50;;;4.75;;
7965;SDS011;4028;43.272;26.932;2023-06-19T13:07:17;16.40;;;5.70;;
7965;SDS011;4028;43.272;26.932;2023-06-19T13:09:42;6.68;;;4.20;;
7965;SDS011;4028;43.272;26.932;2023-06-19T13:12:08;8.63;;;4.63;;
7965;SDS011;4028;43.272;26.932;2023-06-19T13:14:34;7.93;;;4.80;;
7965;SDS011;4028;43.272;26.932;2023-06-19T13:16:59;6.60;;;4.10;;
7965;SDS011;4028;43.272;26.932;2023-06-19T13:19:25;13.57;;;6.22;;
7965;SDS011;4028;43.272;26.932;2023-06-19T13:21:52;16.52;;;6.30;;
7965;SDS011;4028;43.272;26.932;2023-06-19T13:24:18;8.65;;;5.43;;
7965;SDS011;4028;43.272;26.932;2023-06-19T13:26:44;8.52;;;5.80;;
7965;SDS011;4028;43.272;26.932;2023-06-19T13:29:11;7.00;;;5.25;;
7965;SDS011;4028;43.272;26.932;2023-06-19T13:31:37;9.80;;;5.55;;
7965;SDS011;4028;43.272;26.932;2023-06-19T13:34:03;6.18;;;4.88;;
7965;SDS011;4028;43.272;26.932;2023-06-19T13:36:29;8.38;;;5.57;;
7965;SDS011;4028;43.272;26.932;2023-06-19T13:38:55;8.70;;;5.30;;
7965;SDS011;4028;43.272;26.932;2023-06-19T13:41:21;6.38;;;5.40;;
7965;SDS011;4028;43.272;26.932;2023-06-19T13:43:49;7.55;;;5.45;;
7965;SDS011;4028;43.272;26.932;2023-06-19T13:46:15;7.45;;;5.95;;
7965;SDS011;4028;43.272;26.932;2023-06-19T13:48:41;6.72;;;5.78;;
7965;SDS011;4028;43.272;26.932;2023-06-19T13:51:06;10.73;;;6.65;;
7965;SDS011;4028;43.272;26.932;2023-06-19T13:53:32;6.65;;;5.93;;
7965;SDS011;4028;43.272;26.932;2023-06-19T13:55:58;9.38;;;5.78;;
7965;SDS011;4028;43.272;26.932;2023-06-19T13:58:24;7.68;;;5.65;;
7965;SDS011;4028;43.272;26.932;2023-06-19T14:00:50;5.47;;;4.90;;
7965;SDS011;4028;43.272;26.932;2023-06-19T14:03:15;6.03;;;5.53;;
7965;SDS011;4028;43.272;26.932;2023-06-19T14:05:41;6.10;;;5.60;;
7965;SDS011;4028;43.272;26.932;2023-06-19T14:08:07;9.00;;;5.03;;
7965;SDS011;4028;43.272;26.932;2023-06-19T14:10:33;5.57;;;5.07;;
7965;SDS011;4028;43.272;26.932;2023-06-19T14:12:59;6.90;;;5.43;;
7965;SDS011;4028;43.272;26.932;2023-06-19T14:15:24;6.25;;;5.25;;
7965;SDS011;4028;43.272;26.932;2023-06-19T14:17:50;6.90;;;5.15;;
7965;SDS011;4028;43.272;26.932;2023-06-19T14:20:15;5.45;;;5.05;;
7965;SDS011;4028;43.272;26.932;2023-06-19T14:22:41;6.47;;;5.45;;
7965;SDS011;4028;43.272;26.932;2023-06-19T14:25:06;5.57;;;4.97;;
7965;SDS011;4028;43.272;26.932;2023-06-19T14:27:32;5.72;;;5.18;;
7965;SDS011;4028;43.272;26.932;2023-06-19T14:29:58;5.78;;;4.95;;
7965;SDS011;4028;43.272;26.932;2023-06-19T14:32:24;5.10;;;4.65;;
7965;SDS011;4028;43.272;26.932;2023-06-19T14:34:49;5.40;;;4.45;;
7965;SDS011;4028;43.272;26.932;2023-06-19T14:37:15;5.50;;;4.70;;
7965;SDS011;4028;43.272;26.932;2023-06-19T14:39:40;5.47;;;5.03;;
7965;SDS011;4028;43.272;26.932;2023-06-19T14:42:06;6.28;;;4.68;;
7965;SDS011;4028;43.272;26.932;2023-06-19T14:44:32;5.88;;;4.47;;
7965;SDS011;4028;43.272;26.932;2023-06-19T14:47:00;5.68;;;4.93;;
7965;SDS011;4028;43.272;26.932;2023-06-19T14:49:26;5.43;;;4.60;;
7965;SDS011;4028;43.272;26.932;2023-06-19T14:51:51;6.18;;;4.80;;
7965;SDS011;4028;43.272;26.932;2023-06-19T14:54:17;5.10;;;4.60;;
7965;SDS011;4028;43.272;26.932;2023-06-19T14:56:45;5.40;;;4.90;;
7965;SDS011;4028;43.272;26.932;2023-06-19T14:59:13;6.25;;;4.50;;
7965;SDS011;4028;43.272;26.932;2023-06-19T15:01:39;5.97;;;4.88;;
7965;SDS011;4028;43.272;26.932;2023-06-19T15:04:05;7.38;;;5.03;;
7965;SDS011;4028;43.272;26.932;2023-06-19T15:06:31;5.30;;;4.45;;
7965;SDS011;4028;43.272;26.932;2023-06-19T15:08:57;6.50;;;4.75;;